| time (UTC) | temp F | wind direction | speed knots | gust knots | rain 1hr in | rain 24hr in | rain mn in | humidity % | barometer mb |
| 20260505181702 | 83 | 228 | 6.1 | 7.0 | 0.00 | 0.00 | 0.00 | 38 | 1026.7 |
| 20260505181200 | 83 | 207 | 1.7 | 2.6 | 0.00 | 0.00 | 0.00 | 39 | 1026.5 |
| 20260505180655 | 82 | 145 | 1.7 | 2.6 | 0.00 | 0.00 | 0.00 | 41 | 1026.6 |
| 20260505180153 | 82 | 209 | 2.6 | 3.5 | 0.00 | 0.00 | 0.00 | 38 | 1026.6 |
| 20260505175649 | 82 | 287 | 0.9 | 7.8 | 0.00 | 0.00 | 0.00 | 38 | 1026.7 |
| 20260505175145 | 82 | 270 | 5.2 | 7.0 | 0.00 | 0.00 | 0.00 | 38 | 1026.7 |
| 20260505174642 | 81 | 207 | 4.3 | 7.0 | 0.00 | 0.00 | 0.00 | 40 | 1026.9 |
| 20260505174138 | 81 | 202 | 2.6 | 6.1 | 0.00 | 0.00 | 0.00 | 41 | 1027.0 |
| 20260505173635 | 80 | 203 | 1.7 | 3.5 | 0.00 | 0.00 | 0.00 | 40 | 1026.8 |
| 20260505173132 | 81 | 211 | 4.3 | 7.0 | 0.00 | 0.00 | 0.00 | 41 | 1026.9 |
| 20260505172629 | 81 | 183 | 6.1 | 7.8 | 0.00 | 0.00 | 0.00 | 40 | 1026.9 |
| 20260505172126 | 80 | 203 | 5.2 | 7.8 | 0.00 | 0.00 | 0.00 | 41 | 1027.2 |
| 20260505171621 | 81 | 206 | 1.7 | 3.5 | 0.00 | 0.00 | 0.00 | 41 | 1027.3 |
| 20260505171118 | 81 | 206 | 3.5 | 7.0 | 0.00 | 0.00 | 0.00 | 42 | 1027.2 |
| 20260505170615 | 80 | 242 | 3.5 | 7.0 | 0.00 | 0.00 | 0.00 | 42 | 1027.4 |
| 20260505170111 | 80 | 207 | 0.9 | 2.6 | 0.00 | 0.00 | 0.00 | 45 | 1027.4 |
| 20260505165606 | 80 | 254 | 2.6 | 7.0 | 0.00 | 0.00 | 0.00 | 43 | 1027.3 |
| 20260505165102 | 80 | 227 | 3.5 | 7.8 | 0.00 | 0.00 | 0.00 | 42 | 1027.3 |
| 20260505164558 | 80 | 214 | 4.3 | 7.0 | 0.00 | 0.00 | 0.00 | 44 | 1027.3 |
| 20260505164056 | 79 | 215 | 1.7 | 6.1 | 0.00 | 0.00 | 0.00 | 45 | 1027.5 |
| 20260505163554 | 80 | 206 | 3.5 | 3.5 | 0.00 | 0.00 | 0.00 | 44 | 1027.3 |
| 20260505163051 | 79 | 231 | 5.2 | 6.1 | 0.00 | 0.00 | 0.00 | 43 | 1027.6 |
| 20260505162549 | 80 | 207 | 3.5 | 6.1 | 0.00 | 0.00 | 0.00 | 44 | 1027.7 |
| 20260505162047 | 80 | 232 | 3.5 | 6.1 | 0.00 | 0.00 | 0.00 | 41 | 1027.7 |
| 20260505161543 | 80 | 230 | 3.5 | 6.1 | 0.00 | 0.00 | 0.00 | 45 | 1027.7 |
| 20260505161041 | 79 | 158 | 1.7 | 9.6 | 0.00 | 0.00 | 0.00 | 48 | 1027.6 |
| 20260505160539 | 78 | 173 | 4.3 | 6.1 | 0.00 | 0.00 | 0.00 | 47 | 1027.7 |
| 20260505153015 | 77 | 206 | 0.9 | 2.6 | 0.00 | 0.00 | 0.00 | 55 | 1027.8 |
| 20260505152512 | 76 | 199 | 1.7 | 6.1 | 0.00 | 0.00 | 0.00 | 56 | 1027.9 |
| 20260505152008 | 75 | 209 | 2.6 | 2.6 | 0.00 | 0.00 | 0.00 | 57 | 1028.2 |
| 20260505151503 | 75 | 203 | 1.7 | 5.2 | 0.00 | 0.00 | 0.00 | 57 | 1028.2 |
| 20260505151000 | 75 | 198 | 2.6 | 6.1 | 0.00 | 0.00 | 0.00 | 56 | 1028.4 |
| 20260505150457 | 75 | 187 | 1.7 | 6.1 | 0.00 | 0.00 | 0.00 | 57 | 1028.4 |
| 20260505140427 | 72 | 237 | 3.5 | 5.2 | 0.00 | 0.00 | 0.00 | 65 | 1027.8 |
| 20260505124840 | 65 | 197 | 1.7 | 1.7 | 0.00 | 0.00 | 0.00 | 72 | 1027.1 |
| 20260505124337 | 66 | 207 | 1.7 | 3.5 | 0.00 | 0.00 | 0.00 | 72 | 1027.1 |
| 20260505123833 | 66 | 174 | 0.0 | 0.9 | 0.00 | 0.00 | 0.00 | 71 | 1027.1 |
| 20260505123330 | 66 | 174 | 0.0 | 0.9 | 0.00 | 0.00 | 0.00 | 73 | 1027.1 |
| 20260505122826 | 65 | 176 | 0.0 | 0.0 | 0.00 | 0.00 | 0.00 | 74 | 1027.1 |
| 20260505122324 | 64 | 185 | 0.0 | 0.9 | 0.00 | 0.00 | 0.00 | 74 | 1026.9 |
| 20260505121820 | 63 | 185 | 0.0 | 0.0 | 0.00 | 0.00 | 0.00 | 76 | 1027.0 |
| 20260505121317 | 63 | 185 | 0.0 | 0.0 | 0.00 | 0.00 | 0.00 | 78 | 1026.9 |
| 20260505120813 | 62 | 185 | 0.9 | 0.9 | 0.00 | 0.00 | 0.00 | 79 | 1026.8 |
| 20260505120309 | 60 | 185 | 0.0 | 0.0 | 0.00 | 0.00 | 0.00 | 82 | 1027.0 |
| 20260505115808 | 59 | 185 | 0.0 | 0.0 | 0.00 | 0.00 | 0.00 | 87 | 1026.9 |
| 20260505115306 | 58 | 185 | 0.0 | 0.9 | 0.00 | 0.00 | 0.00 | 89 | 1026.6 |
| 20260505114803 | 57 | 185 | 0.0 | 0.0 | 0.00 | 0.00 | 0.00 | 91 | 1026.6 |
| 20260505114300 | 56 | 184 | 0.0 | 0.0 | 0.00 | 0.00 | 0.00 | 92 | 1026.7 |
| 20260505113756 | 55 | 184 | 0.0 | 0.0 | 0.00 | 0.00 | 0.00 | 92 | 1026.7 |
| 20260505113252 | 55 | 184 | 0.0 | 0.0 | 0.00 | 0.00 | 0.00 | 93 | 1026.5 |
| 20260505112748 | 54 | 184 | 0.0 | 0.0 | 0.00 | 0.00 | 0.00 | 93 | 1026.6 |
| 20260505112247 | 54 | 184 | 0.0 | 0.0 | 0.00 | 0.00 | 0.00 | 93 | 1026.7 |
| 20260505111747 | 54 | 184 | 0.0 | 0.0 | 0.00 | 0.00 | 0.00 | 94 | 1026.4 |
| 20260505111243 | 54 | 184 | 0.0 | 0.0 | 0.00 | 0.00 | 0.00 | 94 | 1026.6 |
| 20260505110739 | 53 | 184 | 0.0 | 0.0 | 0.00 | 0.00 | 0.00 | 94 | 1026.5 |
| 20260505110237 | 53 | 184 | 0.0 | 0.0 | 0.00 | 0.00 | 0.00 | 94 | 1026.4 |
| 20260505102212 | 53 | 185 | 0.0 | 0.0 | 0.00 | 0.00 | 0.00 | 93 | 1026.4 |
| 20260505101711 | 54 | 185 | 0.0 | 0.0 | 0.00 | 0.00 | 0.00 | 92 | 1026.1 |
| 20260505101206 | 54 | 185 | 0.0 | 0.0 | 0.00 | 0.00 | 0.00 | 92 | 1026.3 |
| 20260505100703 | 54 | 184 | 0.0 | 0.0 | 0.00 | 0.00 | 0.00 | 92 | 1026.0 |
| 20260505100200 | 54 | 185 | 0.0 | 0.0 | 0.00 | 0.00 | 0.00 | 92 | 1026.0 |
| 20260505095655 | 54 | 184 | 0.0 | 0.0 | 0.00 | 0.00 | 0.00 | 92 | 1026.1 |
| 20260505095153 | 54 | 184 | 0.0 | 0.0 | 0.00 | 0.00 | 0.00 | 92 | 1026.2 |
| 20260505094649 | 54 | 185 | 0.0 | 0.0 | 0.00 | 0.00 | 0.00 | 92 | 1025.9 |
| 20260505094145 | 54 | 185 | 0.0 | 0.0 | 0.00 | 0.00 | 0.00 | 92 | 1026.2 |
| 20260505093642 | 54 | 184 | 0.0 | 0.0 | 0.00 | 0.00 | 0.00 | 92 | 1026.0 |
| 20260505093139 | 54 | 184 | 0.0 | 0.0 | 0.00 | 0.00 | 0.00 | 92 | 1026.0 |
| 20260505092636 | 54 | 184 | 0.0 | 0.0 | 0.00 | 0.00 | 0.00 | 91 | 1025.9 |